sensor_id;sensor_type;location;lat;lon;timestamp;P1;durP1;ratioP1;P2;durP2;ratioP2
45534;SDS011;35892;48.798;9.698;2022-09-24T00:01:34;6.75;;;4.95;;
45534;SDS011;35892;48.798;9.698;2022-09-24T00:04:06;5.82;;;4.38;;
45534;SDS011;35892;48.798;9.698;2022-09-24T00:06:42;5.30;;;4.80;;
45534;SDS011;35892;48.798;9.698;2022-09-24T00:09:13;5.10;;;4.30;;
45534;SDS011;35892;48.798;9.698;2022-09-24T00:11:42;6.40;;;4.55;;
45534;SDS011;35892;48.798;9.698;2022-09-24T00:14:10;5.47;;;4.53;;
45534;SDS011;35892;48.798;9.698;2022-09-24T00:16:40;4.97;;;4.47;;
45534;SDS011;35892;48.798;9.698;2022-09-24T00:19:09;6.10;;;4.97;;
45534;SDS011;35892;48.798;9.698;2022-09-24T00:21:39;6.13;;;4.68;;
45534;SDS011;35892;48.798;9.698;2022-09-24T00:24:16;6.35;;;4.22;;
45534;SDS011;35892;48.798;9.698;2022-09-24T00:27:02;6.43;;;5.28;;
45534;SDS011;35892;48.798;9.698;2022-09-24T00:29:32;7.43;;;5.28;;
45534;SDS011;35892;48.798;9.698;2022-09-24T00:32:00;5.45;;;4.78;;
45534;SDS011;35892;48.798;9.698;2022-09-24T00:34:28;6.65;;;5.95;;
45534;SDS011;35892;48.798;9.698;2022-09-24T00:36:55;8.05;;;5.35;;
45534;SDS011;35892;48.798;9.698;2022-09-24T00:39:25;6.78;;;5.03;;
45534;SDS011;35892;48.798;9.698;2022-09-24T00:41:54;5.90;;;5.15;;
45534;SDS011;35892;48.798;9.698;2022-09-24T00:47:40;5.10;;;4.35;;
45534;SDS011;35892;48.798;9.698;2022-09-24T00:50:25;7.50;;;5.43;;
45534;SDS011;35892;48.798;9.698;2022-09-24T00:55:27;6.32;;;4.18;;
45534;SDS011;35892;48.798;9.698;2022-09-24T00:57:55;6.43;;;3.97;;
45534;SDS011;35892;48.798;9.698;2022-09-24T01:00:24;6.10;;;4.78;;
45534;SDS011;35892;48.798;9.698;2022-09-24T01:02:57;5.97;;;4.43;;
45534;SDS011;35892;48.798;9.698;2022-09-24T01:05:28;6.75;;;5.18;;
45534;SDS011;35892;48.798;9.698;2022-09-24T01:07:55;7.20;;;5.72;;
45534;SDS011;35892;48.798;9.698;2022-09-24T01:10:27;5.22;;;3.95;;
45534;SDS011;35892;48.798;9.698;2022-09-24T01:27:06;6.88;;;6.18;;
45534;SDS011;35892;48.798;9.698;2022-09-24T01:29:43;6.60;;;5.28;;
45534;SDS011;35892;48.798;9.698;2022-09-24T01:32:32;6.43;;;5.82;;
45534;SDS011;35892;48.798;9.698;2022-09-24T01:37:53;7.70;;;5.57;;
45534;SDS011;35892;48.798;9.698;2022-09-24T01:40:24;8.32;;;5.03;;
45534;SDS011;35892;48.798;9.698;2022-09-24T01:42:56;7.93;;;5.60;;
45534;SDS011;35892;48.798;9.698;2022-09-24T01:45:30;6.85;;;5.45;;
45534;SDS011;35892;48.798;9.698;2022-09-24T01:48:00;6.40;;;5.55;;
45534;SDS011;35892;48.798;9.698;2022-09-24T01:50:30;9.27;;;6.05;;
45534;SDS011;35892;48.798;9.698;2022-09-24T01:53:07;7.95;;;6.15;;
45534;SDS011;35892;48.798;9.698;2022-09-24T01:55:50;9.52;;;6.13;;
45534;SDS011;35892;48.798;9.698;2022-09-24T01:58:39;6.82;;;5.00;;
45534;SDS011;35892;48.798;9.698;2022-09-24T02:01:13;6.53;;;5.38;;
45534;SDS011;35892;48.798;9.698;2022-09-24T02:03:45;7.45;;;5.65;;
45534;SDS011;35892;48.798;9.698;2022-09-24T02:06:23;7.82;;;5.82;;
45534;SDS011;35892;48.798;9.698;2022-09-24T02:08:56;6.93;;;6.22;;
45534;SDS011;35892;48.798;9.698;2022-09-24T02:11:25;7.15;;;5.53;;
45534;SDS011;35892;48.798;9.698;2022-09-24T02:14:02;5.32;;;4.82;;
45534;SDS011;35892;48.798;9.698;2022-09-24T02:16:38;6.70;;;6.00;;
45534;SDS011;35892;48.798;9.698;2022-09-24T02:19:16;6.55;;;5.55;;
45534;SDS011;35892;48.798;9.698;2022-09-24T02:21:48;7.68;;;5.40;;
45534;SDS011;35892;48.798;9.698;2022-09-24T02:24:19;7.53;;;6.22;;
45534;SDS011;35892;48.798;9.698;2022-09-24T02:26:49;8.65;;;5.88;;
45534;SDS011;35892;48.798;9.698;2022-09-24T02:29:21;5.53;;;4.95;;
45534;SDS011;35892;48.798;9.698;2022-09-24T02:31:48;5.85;;;5.25;;
45534;SDS011;35892;48.798;9.698;2022-09-24T02:34:34;7.60;;;5.38;;
45534;SDS011;35892;48.798;9.698;2022-09-24T02:37:07;7.15;;;5.93;;
45534;SDS011;35892;48.798;9.698;2022-09-24T02:39:39;5.97;;;4.90;;
45534;SDS011;35892;48.798;9.698;2022-09-24T02:42:11;7.82;;;5.15;;
45534;SDS011;35892;48.798;9.698;2022-09-24T02:44:42;9.05;;;6.20;;
45534;SDS011;35892;48.798;9.698;2022-09-24T02:47:08;6.88;;;5.30;;
45534;SDS011;35892;48.798;9.698;2022-09-24T02:49:38;6.80;;;6.00;;
45534;SDS011;35892;48.798;9.698;2022-09-24T02:52:05;6.57;;;5.40;;
45534;SDS011;35892;48.798;9.698;2022-09-24T02:54:32;6.88;;;5.53;;
45534;SDS011;35892;48.798;9.698;2022-09-24T02:56:59;6.32;;;5.72;;
45534;SDS011;35892;48.798;9.698;2022-09-24T02:59:26;6.68;;;5.68;;
45534;SDS011;35892;48.798;9.698;2022-09-24T03:01:53;7.00;;;5.68;;
45534;SDS011;35892;48.798;9.698;2022-09-24T03:04:20;6.57;;;5.72;;
45534;SDS011;35892;48.798;9.698;2022-09-24T03:06:49;7.13;;;5.38;;
45534;SDS011;35892;48.798;9.698;2022-09-24T03:09:20;8.43;;;5.50;;
45534;SDS011;35892;48.798;9.698;2022-09-24T03:11:47;6.05;;;5.45;;
45534;SDS011;35892;48.798;9.698;2022-09-24T03:14:16;7.55;;;6.15;;
45534;SDS011;35892;48.798;9.698;2022-09-24T03:16:48;8.15;;;6.70;;
45534;SDS011;35892;48.798;9.698;2022-09-24T03:19:17;7.97;;;5.28;;
45534;SDS011;35892;48.798;9.698;2022-09-24T03:21:49;6.50;;;5.38;;
45534;SDS011;35892;48.798;9.698;2022-09-24T03:24:15;7.20;;;5.20;;
45534;SDS011;35892;48.798;9.698;2022-09-24T03:26:44;6.82;;;5.65;;
45534;SDS011;35892;48.798;9.698;2022-09-24T03:29:13;5.88;;;5.28;;
45534;SDS011;35892;48.798;9.698;2022-09-24T03:31:40;6.10;;;5.45;;
45534;SDS011;35892;48.798;9.698;2022-09-24T03:34:07;6.07;;;5.47;;
45534;SDS011;35892;48.798;9.698;2022-09-24T03:36:38;5.90;;;5.30;;
45534;SDS011;35892;48.798;9.698;2022-09-24T03:39:07;5.60;;;5.00;;
45534;SDS011;35892;48.798;9.698;2022-09-24T03:41:41;6.50;;;5.78;;
45534;SDS011;35892;48.798;9.698;2022-09-24T03:44:10;5.50;;;4.88;;
45534;SDS011;35892;48.798;9.698;2022-09-24T03:46:37;5.72;;;5.05;;
45534;SDS011;35892;48.798;9.698;2022-09-24T03:49:03;5.90;;;5.35;;
45534;SDS011;35892;48.798;9.698;2022-09-24T03:51:33;6.50;;;5.25;;
45534;SDS011;35892;48.798;9.698;2022-09-24T03:54:02;5.82;;;4.93;;
45534;SDS011;35892;48.798;9.698;2022-09-24T03:56:28;5.70;;;5.10;;
45534;SDS011;35892;48.798;9.698;2022-09-24T03:58:55;7.18;;;5.60;;
45534;SDS011;35892;48.798;9.698;2022-09-24T04:01:22;7.20;;;6.50;;
45534;SDS011;35892;48.798;9.698;2022-09-24T04:03:49;7.70;;;5.85;;
45534;SDS011;35892;48.798;9.698;2022-09-24T04:06:18;5.97;;;5.38;;
45534;SDS011;35892;48.798;9.698;2022-09-24T04:08:52;7.53;;;5.60;;
45534;SDS011;35892;48.798;9.698;2022-09-24T04:11:23;8.52;;;6.63;;
45534;SDS011;35892;48.798;9.698;2022-09-24T04:13:55;8.02;;;7.22;;
45534;SDS011;35892;48.798;9.698;2022-09-24T04:16:24;6.38;;;5.65;;
45534;SDS011;35892;48.798;9.698;2022-09-24T04:18:51;7.85;;;5.97;;
45534;SDS011;35892;48.798;9.698;2022-09-24T04:23:49;9.90;;;7.10;;
45534;SDS011;35892;48.798;9.698;2022-09-24T04:26:16;6.78;;;5.72;;
45534;SDS011;35892;48.798;9.698;2022-09-24T04:28:43;7.20;;;6.38;;
45534;SDS011;35892;48.798;9.698;2022-09-24T04:31:12;7.20;;;6.10;;
45534;SDS011;35892;48.798;9.698;2022-09-24T04:33:38;8.95;;;6.57;;
45534;SDS011;35892;48.798;9.698;2022-09-24T04:36:05;8.70;;;7.30;;
45534;SDS011;35892;48.798;9.698;2022-09-24T04:38:32;6.03;;;5.25;;
45534;SDS011;35892;48.798;9.698;2022-09-24T04:41:08;6.45;;;5.38;;
45534;SDS011;35892;48.798;9.698;2022-09-24T04:43:37;8.32;;;7.28;;
45534;SDS011;35892;48.798;9.698;2022-09-24T04:46:07;8.90;;;7.13;;
45534;SDS011;35892;48.798;9.698;2022-09-24T04:48:35;7.63;;;5.97;;
45534;SDS011;35892;48.798;9.698;2022-09-24T04:51:05;7.50;;;6.75;;
45534;SDS011;35892;48.798;9.698;2022-09-24T04:53:33;8.38;;;6.53;;
45534;SDS011;35892;48.798;9.698;2022-09-24T04:56:03;7.80;;;5.82;;
45534;SDS011;35892;48.798;9.698;2022-09-24T04:58:37;8.15;;;6.28;;
45534;SDS011;35892;48.798;9.698;2022-09-24T05:01:06;8.35;;;6.03;;
45534;SDS011;35892;48.798;9.698;2022-09-24T05:03:33;6.63;;;5.93;;
45534;SDS011;35892;48.798;9.698;2022-09-24T05:06:02;8.13;;;6.28;;
45534;SDS011;35892;48.798;9.698;2022-09-24T05:08:29;10.23;;;7.45;;
45534;SDS011;35892;48.798;9.698;2022-09-24T05:10:55;8.40;;;6.95;;
45534;SDS011;35892;48.798;9.698;2022-09-24T05:13:22;6.50;;;5.90;;
45534;SDS011;35892;48.798;9.698;2022-09-24T05:15:51;7.30;;;5.43;;
45534;SDS011;35892;48.798;9.698;2022-09-24T05:18:22;6.88;;;5.30;;
45534;SDS011;35892;48.798;9.698;2022-09-24T05:20:49;7.45;;;5.93;;
45534;SDS011;35892;48.798;9.698;2022-09-24T05:23:16;5.85;;;4.97;;
45534;SDS011;35892;48.798;9.698;2022-09-24T05:25:45;6.15;;;5.55;;
45534;SDS011;35892;48.798;9.698;2022-09-24T05:28:30;5.72;;;5.15;;
45534;SDS011;35892;48.798;9.698;2022-09-24T05:31:00;7.53;;;5.72;;
45534;SDS011;35892;48.798;9.698;2022-09-24T05:33:27;5.85;;;5.28;;
45534;SDS011;35892;48.798;9.698;2022-09-24T05:35:54;5.97;;;5.35;;
45534;SDS011;35892;48.798;9.698;2022-09-24T05:38:26;6.28;;;5.65;;
45534;SDS011;35892;48.798;9.698;2022-09-24T05:40:55;7.03;;;6.25;;
45534;SDS011;35892;48.798;9.698;2022-09-24T05:43:24;7.63;;;6.10;;
45534;SDS011;35892;48.798;9.698;2022-09-24T05:45:53;8.23;;;6.35;;
45534;SDS011;35892;48.798;9.698;2022-09-24T05:48:20;9.48;;;6.38;;
45534;SDS011;35892;48.798;9.698;2022-09-24T05:50:49;6.22;;;5.15;;
45534;SDS011;35892;48.798;9.698;2022-09-24T05:53:20;8.02;;;5.82;;
45534;SDS011;35892;48.798;9.698;2022-09-24T05:55:49;7.75;;;6.28;;
45534;SDS011;35892;48.798;9.698;2022-09-24T05:58:16;8.05;;;6.30;;
45534;SDS011;35892;48.798;9.698;2022-09-24T06:00:43;7.15;;;5.00;;
45534;SDS011;35892;48.798;9.698;2022-09-24T06:03:16;8.05;;;5.38;;
45534;SDS011;35892;48.798;9.698;2022-09-24T06:05:50;5.38;;;4.88;;
45534;SDS011;35892;48.798;9.698;2022-09-24T06:08:24;6.65;;;5.05;;
45534;SDS011;35892;48.798;9.698;2022-09-24T06:10:51;5.70;;;4.57;;
45534;SDS011;35892;48.798;9.698;2022-09-24T06:13:19;8.10;;;6.25;;
45534;SDS011;35892;48.798;9.698;2022-09-24T06:15:47;6.25;;;5.65;;
45534;SDS011;35892;48.798;9.698;2022-09-24T06:18:16;6.45;;;4.97;;
45534;SDS011;35892;48.798;9.698;2022-09-24T06:20:45;5.80;;;5.03;;
45534;SDS011;35892;48.798;9.698;2022-09-24T06:23:14;6.97;;;6.28;;
45534;SDS011;35892;48.798;9.698;2022-09-24T06:25:49;8.13;;;5.75;;
45534;SDS011;35892;48.798;9.698;2022-09-24T06:28:18;6.97;;;6.28;;
45534;SDS011;35892;48.798;9.698;2022-09-24T06:30:48;8.30;;;5.28;;
45534;SDS011;35892;48.798;9.698;2022-09-24T06:33:18;6.40;;;5.57;;
45534;SDS011;35892;48.798;9.698;2022-09-24T06:35:50;7.55;;;5.05;;
45534;SDS011;35892;48.798;9.698;2022-09-24T06:38:20;6.55;;;5.88;;
45534;SDS011;35892;48.798;9.698;2022-09-24T06:40:49;4.97;;;4.13;;
45534;SDS011;35892;48.798;9.698;2022-09-24T06:43:18;6.82;;;5.57;;
45534;SDS011;35892;48.798;9.698;2022-09-24T06:45:47;5.10;;;4.60;;
45534;SDS011;35892;48.798;9.698;2022-09-24T06:48:14;8.77;;;5.63;;
45534;SDS011;35892;48.798;9.698;2022-09-24T06:50:43;5.78;;;5.18;;
45534;SDS011;35892;48.798;9.698;2022-09-24T06:53:11;7.82;;;5.65;;
45534;SDS011;35892;48.798;9.698;2022-09-24T06:55:38;6.18;;;4.47;;
45534;SDS011;35892;48.798;9.698;2022-09-24T06:58:08;7.03;;;5.22;;
45534;SDS011;35892;48.798;9.698;2022-09-24T07:00:37;6.60;;;5.00;;
45534;SDS011;35892;48.798;9.698;2022-09-24T07:03:06;6.82;;;5.32;;
45534;SDS011;35892;48.798;9.698;2022-09-24T07:05:41;9.10;;;5.63;;
45534;SDS011;35892;48.798;9.698;2022-09-24T07:08:09;5.18;;;4.65;;
45534;SDS011;35892;48.798;9.698;2022-09-24T07:10:36;6.60;;;4.80;;
45534;SDS011;35892;48.798;9.698;2022-09-24T07:13:10;8.23;;;4.60;;
45534;SDS011;35892;48.798;9.698;2022-09-24T07:15:37;5.30;;;4.63;;
45534;SDS011;35892;48.798;9.698;2022-09-24T07:18:04;6.82;;;5.90;;
45534;SDS011;35892;48.798;9.698;2022-09-24T07:20:31;7.18;;;4.90;;
45534;SDS011;35892;48.798;9.698;2022-09-24T07:23:05;6.30;;;5.60;;
45534;SDS011;35892;48.798;9.698;2022-09-24T07:25:39;7.45;;;5.93;;
45534;SDS011;35892;48.798;9.698;2022-09-24T07:28:09;8.68;;;6.15;;
45534;SDS011;35892;48.798;9.698;2022-09-24T07:30:37;5.77;;;5.17;;
45534;SDS011;35892;48.798;9.698;2022-09-24T07:33:07;7.88;;;4.95;;
45534;SDS011;35892;48.798;9.698;2022-09-24T07:35:37;8.43;;;6.28;;
45534;SDS011;35892;48.798;9.698;2022-09-24T07:38:07;6.35;;;5.72;;
45534;SDS011;35892;48.798;9.698;2022-09-24T07:40:41;8.65;;;6.03;;
45534;SDS011;35892;48.798;9.698;2022-09-24T07:43:10;8.45;;;6.13;;
45534;SDS011;35892;48.798;9.698;2022-09-24T07:45:39;7.50;;;5.75;;
45534;SDS011;35892;48.798;9.698;2022-09-24T07:48:10;6.55;;;5.85;;
45534;SDS011;35892;48.798;9.698;2022-09-24T07:50:43;7.53;;;5.90;;
45534;SDS011;35892;48.798;9.698;2022-09-24T07:53:15;8.65;;;5.63;;
45534;SDS011;35892;48.798;9.698;2022-09-24T07:55:42;6.70;;;6.05;;
45534;SDS011;35892;48.798;9.698;2022-09-24T07:58:12;5.80;;;5.25;;
45534;SDS011;35892;48.798;9.698;2022-09-24T08:00:39;7.60;;;6.90;;
45534;SDS011;35892;48.798;9.698;2022-09-24T08:03:06;8.63;;;6.63;;
45534;SDS011;35892;48.798;9.698;2022-09-24T08:05:44;5.75;;;5.20;;
45534;SDS011;35892;48.798;9.698;2022-09-24T08:08:11;8.77;;;7.03;;
45534;SDS011;35892;48.798;9.698;2022-09-24T08:10:41;8.52;;;7.72;;
45534;SDS011;35892;48.798;9.698;2022-09-24T08:13:08;7.80;;;7.00;;
45534;SDS011;35892;48.798;9.698;2022-09-24T08:15:37;8.80;;;7.00;;
45534;SDS011;35892;48.798;9.698;2022-09-24T08:18:04;6.75;;;6.13;;
45534;SDS011;35892;48.798;9.698;2022-09-24T08:20:31;7.05;;;6.15;;
45534;SDS011;35892;48.798;9.698;2022-09-24T08:23:04;8.75;;;6.93;;
45534;SDS011;35892;48.798;9.698;2022-09-24T08:25:35;6.55;;;5.82;;
45534;SDS011;35892;48.798;9.698;2022-09-24T08:28:05;9.45;;;6.47;;
45534;SDS011;35892;48.798;9.698;2022-09-24T08:30:33;7.95;;;6.57;;
45534;SDS011;35892;48.798;9.698;2022-09-24T08:33:04;14.23;;;9.25;;
45534;SDS011;35892;48.798;9.698;2022-09-24T08:35:36;9.32;;;8.27;;
45534;SDS011;35892;48.798;9.698;2022-09-24T08:38:06;8.35;;;7.53;;
45534;SDS011;35892;48.798;9.698;2022-09-24T08:40:55;11.20;;;9.00;;
45534;SDS011;35892;48.798;9.698;2022-09-24T08:46:37;7.45;;;6.55;;
45534;SDS011;35892;48.798;9.698;2022-09-24T08:49:31;8.27;;;6.43;;
45534;SDS011;35892;48.798;9.698;2022-09-24T08:55:05;6.03;;;5.40;;
45534;SDS011;35892;48.798;9.698;2022-09-24T08:57:39;9.68;;;7.97;;
45534;SDS011;35892;48.798;9.698;2022-09-24T09:00:16;7.28;;;5.95;;
45534;SDS011;35892;48.798;9.698;2022-09-24T09:11:12;6.97;;;6.10;;
45534;SDS011;35892;48.798;9.698;2022-09-24T09:13:47;8.02;;;5.85;;
45534;SDS011;35892;48.798;9.698;2022-09-24T09:17:08;6.03;;;5.05;;
45534;SDS011;35892;48.798;9.698;2022-09-24T09:19:25;8.13;;;5.35;;
45534;SDS011;35892;48.798;9.698;2022-09-24T09:22:00;8.93;;;5.95;;
45534;SDS011;35892;48.798;9.698;2022-09-24T09:24:52;6.00;;;4.80;;
45534;SDS011;35892;48.798;9.698;2022-09-24T09:27:31;5.07;;;4.60;;
45534;SDS011;35892;48.798;9.698;2022-09-24T09:30:02;6.53;;;5.28;;
45534;SDS011;35892;48.798;9.698;2022-09-24T09:41:02;6.47;;;4.80;;
45534;SDS011;35892;48.798;9.698;2022-09-24T09:43:39;8.15;;;5.13;;
45534;SDS011;35892;48.798;9.698;2022-09-24T09:48:54;6.13;;;4.80;;
45534;SDS011;35892;48.798;9.698;2022-09-24T09:51:29;7.63;;;5.53;;
45534;SDS011;35892;48.798;9.698;2022-09-24T09:54:02;7.68;;;5.53;;
45534;SDS011;35892;48.798;9.698;2022-09-24T09:56:35;7.05;;;5.30;;
45534;SDS011;35892;48.798;9.698;2022-09-24T10:04:27;4.63;;;3.65;;
45534;SDS011;35892;48.798;9.698;2022-09-24T10:09:39;8.13;;;4.63;;
45534;SDS011;35892;48.798;9.698;2022-09-24T10:15:11;3.35;;;3.03;;
45534;SDS011;35892;48.798;9.698;2022-09-24T10:17:48;3.75;;;2.85;;
45534;SDS011;35892;48.798;9.698;2022-09-24T10:20:24;2.95;;;2.60;;
45534;SDS011;35892;48.798;9.698;2022-09-24T10:23:03;2.50;;;2.30;;
45534;SDS011;35892;48.798;9.698;2022-09-24T10:25:32;4.13;;;2.50;;
45534;SDS011;35892;48.798;9.698;2022-09-24T10:28:06;2.50;;;2.08;;
45534;SDS011;35892;48.798;9.698;2022-09-24T10:33:46;4.82;;;2.65;;
45534;SDS011;35892;48.798;9.698;2022-09-24T10:39:08;2.25;;;1.67;;
45534;SDS011;35892;48.798;9.698;2022-09-24T10:41:48;3.38;;;2.38;;
45534;SDS011;35892;48.798;9.698;2022-09-24T10:44:21;2.92;;;2.10;;
45534;SDS011;35892;48.798;9.698;2022-09-24T11:09:40;2.30;;;1.80;;
45534;SDS011;35892;48.798;9.698;2022-09-24T11:12:24;2.05;;;1.70;;
45534;SDS011;35892;48.798;9.698;2022-09-24T11:21:11;2.83;;;1.80;;
45534;SDS011;35892;48.798;9.698;2022-09-24T11:24:19;2.15;;;1.80;;
45534;SDS011;35892;48.798;9.698;2022-09-24T11:44:22;2.92;;;2.10;;
45534;SDS011;35892;48.798;9.698;2022-09-24T11:47:16;3.30;;;1.88;;
45534;SDS011;35892;48.798;9.698;2022-09-24T11:52:38;2.53;;;2.13;;
45534;SDS011;35892;48.798;9.698;2022-09-24T11:55:14;4.22;;;2.35;;
45534;SDS011;35892;48.798;9.698;2022-09-24T11:58:04;2.03;;;1.85;;
45534;SDS011;35892;48.798;9.698;2022-09-24T12:03:17;3.38;;;2.40;;
45534;SDS011;35892;48.798;9.698;2022-09-24T12:06:10;3.45;;;2.60;;
45534;SDS011;35892;48.798;9.698;2022-09-24T12:08:43;4.57;;;2.97;;
45534;SDS011;35892;48.798;9.698;2022-09-24T12:11:19;2.28;;;2.08;;
45534;SDS011;35892;48.798;9.698;2022-09-24T12:14:11;3.75;;;2.42;;
45534;SDS011;35892;48.798;9.698;2022-09-24T12:16:42;2.92;;;2.20;;
45534;SDS011;35892;48.798;9.698;2022-09-24T12:19:15;4.95;;;2.63;;
45534;SDS011;35892;48.798;9.698;2022-09-24T12:21:47;3.08;;;2.45;;
45534;SDS011;35892;48.798;9.698;2022-09-24T12:26:58;2.25;;;2.05;;
45534;SDS011;35892;48.798;9.698;2022-09-24T12:36:04;2.38;;;2.03;;
45534;SDS011;35892;48.798;9.698;2022-09-24T12:38:42;2.55;;;2.00;;
45534;SDS011;35892;48.798;9.698;2022-09-24T12:46:58;3.72;;;2.90;;
45534;SDS011;35892;48.798;9.698;2022-09-24T12:52:02;3.05;;;2.60;;
45534;SDS011;35892;48.798;9.698;2022-09-24T12:54:41;2.35;;;2.15;;
45534;SDS011;35892;48.798;9.698;2022-09-24T12:57:18;3.30;;;2.45;;
45534;SDS011;35892;48.798;9.698;2022-09-24T13:02:29;3.22;;;2.78;;
45534;SDS011;35892;48.798;9.698;2022-09-24T13:10:26;2.85;;;2.30;;
45534;SDS011;35892;48.798;9.698;2022-09-24T13:12:58;2.75;;;2.17;;
45534;SDS011;35892;48.798;9.698;2022-09-24T13:18:01;2.47;;;2.03;;
45534;SDS011;35892;48.798;9.698;2022-09-24T13:20:37;5.05;;;2.97;;
45534;SDS011;35892;48.798;9.698;2022-09-24T13:28:48;2.50;;;2.03;;
45534;SDS011;35892;48.798;9.698;2022-09-24T13:33:59;2.53;;;2.00;;
45534;SDS011;35892;48.798;9.698;2022-09-24T13:42:15;3.47;;;2.25;;
45534;SDS011;35892;48.798;9.698;2022-09-24T13:44:52;3.85;;;2.30;;
45534;SDS011;35892;48.798;9.698;2022-09-24T13:50:06;2.95;;;1.92;;
45534;SDS011;35892;48.798;9.698;2022-09-24T13:57:56;4.07;;;2.38;;
45534;SDS011;35892;48.798;9.698;2022-09-24T14:00:27;2.83;;;2.40;;
45534;SDS011;35892;48.798;9.698;2022-09-24T14:05:40;2.05;;;1.80;;
45534;SDS011;35892;48.798;9.698;2022-09-24T14:08:08;3.20;;;2.15;;
45534;SDS011;35892;48.798;9.698;2022-09-24T14:10:41;3.45;;;2.70;;
45534;SDS011;35892;48.798;9.698;2022-09-24T14:15:48;7.35;;;4.57;;
45534;SDS011;35892;48.798;9.698;2022-09-24T14:18:22;7.00;;;5.32;;
45534;SDS011;35892;48.798;9.698;2022-09-24T14:23:25;8.67;;;5.80;;
45534;SDS011;35892;48.798;9.698;2022-09-24T14:25:56;4.65;;;3.60;;
45534;SDS011;35892;48.798;9.698;2022-09-24T14:28:28;4.90;;;3.58;;
45534;SDS011;35892;48.798;9.698;2022-09-24T14:30:57;6.30;;;4.20;;
45534;SDS011;35892;48.798;9.698;2022-09-24T14:33:29;5.55;;;4.00;;
45534;SDS011;35892;48.798;9.698;2022-09-24T14:35:58;10.00;;;5.03;;
45534;SDS011;35892;48.798;9.698;2022-09-24T14:38:31;5.78;;;4.78;;
45534;SDS011;35892;48.798;9.698;2022-09-24T14:43:48;6.03;;;4.28;;
45534;SDS011;35892;48.798;9.698;2022-09-24T14:49:06;5.78;;;4.00;;
45534;SDS011;35892;48.798;9.698;2022-09-24T14:56:52;5.47;;;4.07;;
45534;SDS011;35892;48.798;9.698;2022-09-24T14:59:29;4.28;;;3.88;;
45534;SDS011;35892;48.798;9.698;2022-09-24T15:04:58;5.30;;;4.78;;
45534;SDS011;35892;48.798;9.698;2022-09-24T15:07:32;6.32;;;4.03;;
45534;SDS011;35892;48.798;9.698;2022-09-24T15:10:00;4.20;;;3.47;;
45534;SDS011;35892;48.798;9.698;2022-09-24T15:12:30;6.53;;;4.45;;
45534;SDS011;35892;48.798;9.698;2022-09-24T15:15:01;4.80;;;4.10;;
45534;SDS011;35892;48.798;9.698;2022-09-24T15:17:31;4.22;;;3.85;;
45534;SDS011;35892;48.798;9.698;2022-09-24T15:19:59;5.40;;;3.97;;
45534;SDS011;35892;48.798;9.698;2022-09-24T15:22:29;5.03;;;4.53;;
45534;SDS011;35892;48.798;9.698;2022-09-24T15:25:01;4.07;;;3.55;;
45534;SDS011;35892;48.798;9.698;2022-09-24T15:27:33;4.40;;;3.95;;
45534;SDS011;35892;48.798;9.698;2022-09-24T15:30:05;4.38;;;3.58;;
45534;SDS011;35892;48.798;9.698;2022-09-24T15:32:37;4.97;;;4.50;;
45534;SDS011;35892;48.798;9.698;2022-09-24T15:35:04;5.47;;;3.50;;
45534;SDS011;35892;48.798;9.698;2022-09-24T15:37:38;5.25;;;4.15;;
45534;SDS011;35892;48.798;9.698;2022-09-24T15:42:35;6.07;;;5.45;;
45534;SDS011;35892;48.798;9.698;2022-09-24T15:45:01;6.13;;;5.53;;
45534;SDS011;35892;48.798;9.698;2022-09-24T15:47:34;6.57;;;5.45;;
45534;SDS011;35892;48.798;9.698;2022-09-24T15:50:03;7.70;;;6.45;;
45534;SDS011;35892;48.798;9.698;2022-09-24T15:52:37;7.38;;;6.38;;
45534;SDS011;35892;48.798;9.698;2022-09-24T15:55:11;7.78;;;6.90;;
45534;SDS011;35892;48.798;9.698;2022-09-24T15:57:44;8.55;;;7.20;;
45534;SDS011;35892;48.798;9.698;2022-09-24T16:00:13;7.88;;;7.07;;
45534;SDS011;35892;48.798;9.698;2022-09-24T16:05:13;20.95;;;16.92;;
45534;SDS011;35892;48.798;9.698;2022-09-24T16:07:45;12.45;;;10.07;;
45534;SDS011;35892;48.798;9.698;2022-09-24T16:12:46;6.93;;;5.30;;
45534;SDS011;35892;48.798;9.698;2022-09-24T16:15:15;7.65;;;5.40;;
45534;SDS011;35892;48.798;9.698;2022-09-24T16:17:42;7.07;;;6.38;;
45534;SDS011;35892;48.798;9.698;2022-09-24T16:20:09;6.00;;;5.40;;
45534;SDS011;35892;48.798;9.698;2022-09-24T16:22:38;6.43;;;5.05;;
45534;SDS011;35892;48.798;9.698;2022-09-24T16:25:07;5.93;;;4.82;;
45534;SDS011;35892;48.798;9.698;2022-09-24T16:27:36;6.07;;;5.00;;
45534;SDS011;35892;48.798;9.698;2022-09-24T16:30:03;5.47;;;4.93;;
45534;SDS011;35892;48.798;9.698;2022-09-24T16:32:33;6.50;;;4.95;;
45534;SDS011;35892;48.798;9.698;2022-09-24T16:35:00;8.70;;;6.60;;
45534;SDS011;35892;48.798;9.698;2022-09-24T16:37:29;7.10;;;6.40;;
45534;SDS011;35892;48.798;9.698;2022-09-24T16:39:56;7.03;;;5.85;;
45534;SDS011;35892;48.798;9.698;2022-09-24T16:42:25;6.60;;;5.70;;
45534;SDS011;35892;48.798;9.698;2022-09-24T16:44:52;5.15;;;4.63;;
45534;SDS011;35892;48.798;9.698;2022-09-24T16:47:23;5.10;;;4.57;;
45534;SDS011;35892;48.798;9.698;2022-09-24T16:49:50;6.88;;;4.50;;
45534;SDS011;35892;48.798;9.698;2022-09-24T16:52:17;5.88;;;5.15;;
45534;SDS011;35892;48.798;9.698;2022-09-24T16:54:45;7.35;;;5.50;;
45534;SDS011;35892;48.798;9.698;2022-09-24T16:57:12;6.07;;;4.82;;
45534;SDS011;35892;48.798;9.698;2022-09-24T16:59:39;6.32;;;5.72;;
45534;SDS011;35892;48.798;9.698;2022-09-24T17:02:08;6.72;;;5.43;;
45534;SDS011;35892;48.798;9.698;2022-09-24T17:04:39;7.00;;;6.30;;
45534;SDS011;35892;48.798;9.698;2022-09-24T17:07:08;7.82;;;6.95;;
45534;SDS011;35892;48.798;9.698;2022-09-24T17:09:37;10.68;;;8.93;;
45534;SDS011;35892;48.798;9.698;2022-09-24T17:12:23;8.57;;;7.65;;
45534;SDS011;35892;48.798;9.698;2022-09-24T17:14:49;6.22;;;5.63;;
45534;SDS011;35892;48.798;9.698;2022-09-24T17:17:19;6.25;;;4.78;;
45534;SDS011;35892;48.798;9.698;2022-09-24T17:19:48;4.90;;;4.38;;
45534;SDS011;35892;48.798;9.698;2022-09-24T17:22:14;7.18;;;6.47;;
45534;SDS011;35892;48.798;9.698;2022-09-24T17:24:44;8.45;;;7.50;;
45534;SDS011;35892;48.798;9.698;2022-09-24T17:27:10;16.80;;;13.38;;
45534;SDS011;35892;48.798;9.698;2022-09-24T17:29:37;15.20;;;12.07;;
45534;SDS011;35892;48.798;9.698;2022-09-24T17:32:04;10.20;;;8.20;;
45534;SDS011;35892;48.798;9.698;2022-09-24T17:34:33;7.88;;;6.93;;
45534;SDS011;35892;48.798;9.698;2022-09-24T17:36:59;6.72;;;5.57;;
45534;SDS011;35892;48.798;9.698;2022-09-24T17:39:26;8.00;;;5.55;;
45534;SDS011;35892;48.798;9.698;2022-09-24T17:41:56;5.60;;;5.03;;
45534;SDS011;35892;48.798;9.698;2022-09-24T17:44:23;17.08;;;15.23;;
45534;SDS011;35892;48.798;9.698;2022-09-24T17:46:49;10.13;;;9.13;;
45534;SDS011;35892;48.798;9.698;2022-09-24T17:49:18;7.18;;;6.22;;
45534;SDS011;35892;48.798;9.698;2022-09-24T17:51:50;14.02;;;7.57;;
45534;SDS011;35892;48.798;9.698;2022-09-24T17:54:17;6.80;;;6.07;;
45534;SDS011;35892;48.798;9.698;2022-09-24T17:56:46;7.47;;;5.45;;
45534;SDS011;35892;48.798;9.698;2022-09-24T17:59:13;7.40;;;6.50;;
45534;SDS011;35892;48.798;9.698;2022-09-24T18:01:43;9.57;;;8.07;;
45534;SDS011;35892;48.798;9.698;2022-09-24T18:04:12;10.27;;;8.52;;
45534;SDS011;35892;48.798;9.698;2022-09-24T18:06:41;23.27;;;17.75;;
45534;SDS011;35892;48.798;9.698;2022-09-24T18:09:12;16.70;;;14.90;;
45534;SDS011;35892;48.798;9.698;2022-09-24T18:11:44;25.70;;;11.30;;
45534;SDS011;35892;48.798;9.698;2022-09-24T18:14:14;29.67;;;11.27;;
45534;SDS011;35892;48.798;9.698;2022-09-24T18:16:45;15.70;;;12.10;;
45534;SDS011;35892;48.798;9.698;2022-09-24T18:19:16;13.85;;;10.18;;
45534;SDS011;35892;48.798;9.698;2022-09-24T18:21:44;12.23;;;10.68;;
45534;SDS011;35892;48.798;9.698;2022-09-24T18:24:14;11.68;;;8.75;;
45534;SDS011;35892;48.798;9.698;2022-09-24T18:26:41;15.05;;;8.75;;
45534;SDS011;35892;48.798;9.698;2022-09-24T18:29:17;18.75;;;10.73;;